createdAt,value
2023-02-03T00:00:21.798Z,2.37
2023-02-03T00:02:50.611Z,2.80
2023-02-03T00:05:19.505Z,2.77
2023-02-03T00:07:48.303Z,2.60
2023-02-03T00:10:21.326Z,2.70
2023-02-03T00:12:52.948Z,2.53
2023-02-03T00:15:23.350Z,3.10
2023-02-03T00:17:52.320Z,2.70
2023-02-03T00:20:21.666Z,3.87
2023-02-03T00:22:50.751Z,2.87
2023-02-03T00:25:21.729Z,2.40
2023-02-03T00:27:52.321Z,2.70
2023-02-03T00:30:21.335Z,2.67
2023-02-03T00:32:50.152Z,2.33
2023-02-03T00:35:19.080Z,2.30
2023-02-03T00:37:53.646Z,2.47
2023-02-03T00:40:24.903Z,2.73
2023-02-03T00:42:55.972Z,2.60
2023-02-03T00:45:24.854Z,2.80
2023-02-03T00:47:53.615Z,2.87
2023-02-03T00:50:22.413Z,2.80
2023-02-03T00:52:51.234Z,2.90
2023-02-03T00:55:19.963Z,2.57
2023-02-03T00:57:48.742Z,2.53
2023-02-03T01:00:21.481Z,2.43
2023-02-03T01:02:50.411Z,3.43
2023-02-03T01:05:19.391Z,2.70
2023-02-03T01:07:48.239Z,2.83
2023-02-03T01:10:17.496Z,2.63
2023-02-03T01:12:46.214Z,2.70
2023-02-03T01:15:14.946Z,3.30
2023-02-03T01:17:45.169Z,2.20
2023-02-03T01:20:16.487Z,2.90
2023-02-03T01:22:45.467Z,2.60
2023-02-03T01:25:14.318Z,3.97
2023-02-03T01:27:43.288Z,2.80
2023-02-03T01:30:13.602Z,2.47
2023-02-03T01:32:42.429Z,2.40
2023-02-03T01:35:12.591Z,2.17
2023-02-03T01:37:41.348Z,2.40
2023-02-03T01:40:12.008Z,2.63
2023-02-03T01:42:40.736Z,2.93
2023-02-03T01:45:13.626Z,2.90
2023-02-03T01:47:48.240Z,2.20
2023-02-03T01:50:22.535Z,2.20
2023-02-03T01:52:58.459Z,2.50
2023-02-03T01:55:33.262Z,2.60
2023-02-03T01:58:07.949Z,2.70
2023-02-03T02:00:36.867Z,2.63
2023-02-03T02:03:07.914Z,2.53
2023-02-03T02:05:47.380Z,2.40
2023-02-03T02:08:19.537Z,2.33
2023-02-03T02:10:48.661Z,2.23
2023-02-03T02:13:19.398Z,2.50
2023-02-03T02:15:58.812Z,2.40
2023-02-03T02:18:47.540Z,2.77
2023-02-03T02:21:54.667Z,2.40
2023-02-03T02:25:16.492Z,2.33
2023-02-03T02:28:28.318Z,2.40
2023-02-03T02:31:42.428Z,2.27
2023-02-03T02:34:24.041Z,2.00
2023-02-03T02:37:06.265Z,2.10
2023-02-03T02:39:47.614Z,2.20
2023-02-03T02:42:23.346Z,2.13
2023-02-03T02:44:59.792Z,2.17
2023-02-03T02:47:28.705Z,2.37
2023-02-03T02:50:06.655Z,2.43
2023-02-03T02:52:42.363Z,2.13
2023-02-03T02:55:18.493Z,2.40
2023-02-03T02:57:48.827Z,2.67
2023-02-03T03:00:18.168Z,2.60
2023-02-03T03:02:47.002Z,2.40
2023-02-03T03:05:20.728Z,2.67
2023-02-03T03:07:56.558Z,2.90
2023-02-03T03:10:32.333Z,3.70
2023-02-03T03:13:07.472Z,4.07
2023-02-03T03:15:38.368Z,4.23
2023-02-03T03:18:15.538Z,4.77
2023-02-03T03:20:51.350Z,4.30
2023-02-03T03:23:27.543Z,4.43
2023-02-03T03:26:05.743Z,4.00
2023-02-03T03:28:43.757Z,4.17
2023-02-03T03:31:12.695Z,4.10
2023-02-03T03:33:41.967Z,4.87
2023-02-03T03:36:25.313Z,4.70
2023-02-03T03:39:01.950Z,5.03
2023-02-03T03:41:42.638Z,5.03
2023-02-03T03:44:18.155Z,5.43
2023-02-03T03:46:57.131Z,5.67
2023-02-03T03:49:29.033Z,5.63
2023-02-03T03:52:06.320Z,5.83
2023-02-03T03:54:38.743Z,5.47
2023-02-03T03:57:15.910Z,5.70
2023-02-03T03:59:50.279Z,6.00
2023-02-03T04:02:22.404Z,5.93
2023-02-03T04:04:53.228Z,6.10
2023-02-03T04:07:23.437Z,5.70
2023-02-03T04:09:52.111Z,6.67
2023-02-03T04:12:25.666Z,6.57
2023-02-03T04:14:54.513Z,6.63
2023-02-03T04:17:23.406Z,6.43
2023-02-03T04:19:52.074Z,7.47
2023-02-03T04:22:22.336Z,7.20
2023-02-03T04:24:51.044Z,7.23
2023-02-03T04:27:19.871Z,7.63
2023-02-03T04:29:50.778Z,8.67
2023-02-03T04:32:20.062Z,8.00
2023-02-03T04:34:49.040Z,7.00
2023-02-03T04:37:18.160Z,7.70
2023-02-03T04:39:48.389Z,6.73
2023-02-03T04:42:17.289Z,7.40
2023-02-03T04:44:46.266Z,6.80
2023-02-03T04:47:15.457Z,6.37
2023-02-03T04:49:44.257Z,7.07
2023-02-03T04:52:14.156Z,6.33
2023-02-03T04:54:43.269Z,6.80
2023-02-03T04:57:13.980Z,6.47
2023-02-03T04:59:43.051Z,6.63
2023-02-03T05:02:11.818Z,6.50
2023-02-03T05:04:40.849Z,6.23
2023-02-03T05:07:09.535Z,5.87
2023-02-03T05:09:38.230Z,6.17
2023-02-03T05:12:07.747Z,5.60
2023-02-03T05:14:37.855Z,4.90
2023-02-03T05:17:06.631Z,5.87
2023-02-03T05:19:35.421Z,6.47
2023-02-03T05:22:04.158Z,5.63
2023-02-03T05:24:32.887Z,5.43
2023-02-03T05:27:01.625Z,4.97
2023-02-03T05:29:30.462Z,4.63
2023-02-03T05:32:00.993Z,4.30
2023-02-03T05:34:29.760Z,4.43
2023-02-03T05:36:58.782Z,4.43
2023-02-03T05:39:27.562Z,5.30
2023-02-03T05:41:57.377Z,5.80
2023-02-03T05:44:30.305Z,5.77
2023-02-03T05:47:01.182Z,8.57
2023-02-03T05:49:30.037Z,17.63
2023-02-03T05:51:58.851Z,5.87
2023-02-03T05:54:27.842Z,9.10
2023-02-03T05:56:56.612Z,6.97
2023-02-03T05:59:25.929Z,6.50
2023-02-03T06:01:54.639Z,5.93
2023-02-03T06:04:25.053Z,5.93
2023-02-03T06:06:53.808Z,6.57
2023-02-03T06:09:22.539Z,7.10
2023-02-03T06:11:51.331Z,7.60
2023-02-03T06:14:20.164Z,6.80
2023-02-03T06:16:48.990Z,6.93
2023-02-03T06:19:17.803Z,6.57
2023-02-03T06:21:48.287Z,6.23
2023-02-03T06:24:17.156Z,6.97
2023-02-03T06:26:45.958Z,7.33
2023-02-03T06:29:14.737Z,7.13
2023-02-03T06:31:43.681Z,7.20
2023-02-03T06:34:12.649Z,6.50
2023-02-03T06:36:41.376Z,5.53
2023-02-03T06:39:11.649Z,6.03
2023-02-03T06:41:40.339Z,4.00
2023-02-03T06:44:09.580Z,4.33
2023-02-03T06:46:38.580Z,3.90
2023-02-03T06:49:07.481Z,3.33
2023-02-03T06:51:36.518Z,2.50
2023-02-03T06:54:05.961Z,1.53
2023-02-03T06:56:36.235Z,1.20
2023-02-03T06:59:05.332Z,0.97
2023-02-03T07:01:34.265Z,0.93
2023-02-03T07:04:03.656Z,1.13
2023-02-03T07:06:34.177Z,0.90
2023-02-03T07:09:06.125Z,0.90
2023-02-03T07:11:36.293Z,1.07
2023-02-03T07:14:05.123Z,0.90
2023-02-03T07:16:34.573Z,1.30
2023-02-03T07:19:03.407Z,1.20
2023-02-03T07:21:32.257Z,0.97
2023-02-03T07:24:02.422Z,1.00
2023-02-03T07:26:31.348Z,1.00
2023-02-03T07:29:01.584Z,1.00
2023-02-03T07:31:30.560Z,0.60
2023-02-03T07:34:01.199Z,1.30
2023-02-03T07:36:30.146Z,1.03
2023-02-03T07:38:58.896Z,1.60
2023-02-03T07:41:27.675Z,3.57
2023-02-03T07:43:56.513Z,4.90
2023-02-03T07:46:26.792Z,5.37
2023-02-03T07:48:55.765Z,5.57
2023-02-03T07:51:24.617Z,5.57
2023-02-03T07:53:53.738Z,5.20
2023-02-03T07:56:22.732Z,6.77
2023-02-03T07:58:54.696Z,9.20
2023-02-03T08:01:23.708Z,14.73
2023-02-03T08:03:55.224Z,4.23
2023-02-03T08:06:24.567Z,3.83
2023-02-03T08:08:54.202Z,4.30
2023-02-03T08:11:22.992Z,3.70
2023-02-03T08:13:51.860Z,4.20
2023-02-03T08:16:21.095Z,4.53
2023-02-03T08:18:50.203Z,3.50
2023-02-03T08:21:20.400Z,2.73
2023-02-03T08:23:49.248Z,2.40
2023-02-03T08:26:18.086Z,2.17
2023-02-03T08:28:51.101Z,2.00
2023-02-03T08:31:20.146Z,1.63
2023-02-03T08:33:49.233Z,1.50
2023-02-03T08:36:19.688Z,1.60
2023-02-03T08:38:48.627Z,11.50
2023-02-03T08:41:20.109Z,16.33
2023-02-03T08:43:49.878Z,8.67
2023-02-03T08:46:18.672Z,5.00
2023-02-03T08:48:47.400Z,3.20
2023-02-03T08:51:20.015Z,2.20
2023-02-03T08:53:49.078Z,1.80
2023-02-03T08:56:17.973Z,2.60
2023-02-03T08:58:46.990Z,2.00
2023-02-03T09:01:17.238Z,1.67
2023-02-03T09:03:46.147Z,1.90
2023-02-03T09:06:16.813Z,2.40
2023-02-03T09:08:47.686Z,2.00
2023-02-03T09:11:19.767Z,1.53
2023-02-03T09:13:49.738Z,5.93
2023-02-03T09:16:21.941Z,1.83
2023-02-03T09:18:51.531Z,1.50
2023-02-03T09:21:32.912Z,1.70
2023-02-03T09:24:05.778Z,1.57
2023-02-03T09:26:34.548Z,1.70
2023-02-03T09:29:03.446Z,1.90
2023-02-03T09:31:32.288Z,1.53
2023-02-03T09:34:01.292Z,1.77
2023-02-03T09:36:30.281Z,1.87
2023-02-03T09:38:59.320Z,1.83
2023-02-03T09:41:52.746Z,1.93
2023-02-03T09:44:33.608Z,10.63
2023-02-03T09:47:09.017Z,7.77
2023-02-03T09:49:42.617Z,5.20
2023-02-03T09:52:18.874Z,4.40
2023-02-03T09:54:57.584Z,2.70
2023-02-03T09:57:31.046Z,2.60
2023-02-03T10:00:05.891Z,2.80
2023-02-03T10:02:56.607Z,2.20
2023-02-03T10:05:39.664Z,2.07
2023-02-03T10:08:23.510Z,2.30
2023-02-03T10:11:12.030Z,2.00
2023-02-03T10:13:53.845Z,3.07
2023-02-03T10:16:56.214Z,2.67
2023-02-03T10:19:37.443Z,3.50
2023-02-03T10:22:07.985Z,3.30
2023-02-03T10:24:46.303Z,3.50
2023-02-03T10:27:20.707Z,4.60
2023-02-03T10:30:00.584Z,5.90
2023-02-03T10:32:30.528Z,4.33
2023-02-03T10:34:59.436Z,6.90
2023-02-03T10:37:32.327Z,7.30
2023-02-03T10:40:03.439Z,6.87
2023-02-03T10:42:49.647Z,6.40
2023-02-03T10:45:22.021Z,8.67
2023-02-03T10:47:56.079Z,6.03
2023-02-03T10:50:31.939Z,31.80
2023-02-03T10:53:24.954Z,22.20
2023-02-03T10:56:05.232Z,13.70
2023-02-03T10:58:35.849Z,6.80
2023-02-03T11:01:13.885Z,2.67
2023-02-03T11:03:54.720Z,1.67
2023-02-03T11:06:23.568Z,0.93
2023-02-03T11:08:53.600Z,1.00
2023-02-03T11:11:26.026Z,0.70
2023-02-03T11:13:57.312Z,0.70
2023-02-03T11:16:27.647Z,0.73
2023-02-03T11:19:01.337Z,0.90
2023-02-03T11:21:34.768Z,2.30
2023-02-03T11:24:10.394Z,1.40
2023-02-03T11:26:45.266Z,1.10
2023-02-03T11:29:23.778Z,1.37
2023-02-03T11:31:57.456Z,1.00
2023-02-03T11:34:31.777Z,0.70
2023-02-03T11:37:26.371Z,0.60
2023-02-03T11:39:58.383Z,0.70
2023-02-03T11:42:27.376Z,0.57
2023-02-03T11:45:16.115Z,0.60
2023-02-03T11:47:51.686Z,1.10
2023-02-03T11:50:32.619Z,2.20
2023-02-03T11:53:28.361Z,2.40
2023-02-03T11:56:19.946Z,3.03
2023-02-03T11:59:24.532Z,1.20
2023-02-03T12:02:35.787Z,0.80
2023-02-03T12:05:33.353Z,0.90
2023-02-03T12:08:22.526Z,1.05
2023-02-03T12:11:10.636Z,0.50
2023-02-03T12:14:04.787Z,0.70
2023-02-03T12:17:23.665Z,2.08
2023-02-03T12:20:18.312Z,3.07
2023-02-03T12:23:02.841Z,0.90
2023-02-03T12:25:47.919Z,3.00
2023-02-03T12:28:43.902Z,0.60
2023-02-03T12:31:27.511Z,1.30
2023-02-03T12:34:10.852Z,3.35
2023-02-03T12:36:49.190Z,0.95
2023-02-03T12:39:24.742Z,2.95
2023-02-03T12:42:03.007Z,1.50
2023-02-03T12:44:41.391Z,0.90
2023-02-03T12:47:23.521Z,1.23
2023-02-03T12:49:57.760Z,1.30
2023-02-03T12:52:35.881Z,1.20
2023-02-03T12:55:21.830Z,1.02
2023-02-03T12:58:00.217Z,0.67
2023-02-03T13:00:47.533Z,7.55
2023-02-03T13:03:28.248Z,2.50
2023-02-03T13:06:09.384Z,1.60
2023-02-03T13:08:45.297Z,0.90
2023-02-03T13:11:24.772Z,0.60
2023-02-03T13:13:58.408Z,1.63
2023-02-03T13:16:35.269Z,0.80
2023-02-03T13:19:11.234Z,1.40
2023-02-03T13:21:40.016Z,0.63
2023-02-03T13:24:13.362Z,0.60
2023-02-03T13:27:12.719Z,1.00
2023-02-03T13:30:06.279Z,1.10
2023-02-03T13:33:05.742Z,2.00
2023-02-03T13:35:59.444Z,1.05
2023-02-03T13:39:01.045Z,0.60
2023-02-03T13:41:44.025Z,0.75
2023-02-03T13:44:18.161Z,0.88
2023-02-03T13:46:50.792Z,1.98
2023-02-03T13:49:28.780Z,1.00
2023-02-03T13:51:58.207Z,0.90
2023-02-03T13:54:38.209Z,0.75
2023-02-03T13:57:24.049Z,0.77
2023-02-03T13:59:52.804Z,0.63
2023-02-03T14:02:55.631Z,0.52
2023-02-03T14:05:49.005Z,1.00
2023-02-03T14:08:59.746Z,5.23
2023-02-03T14:11:43.307Z,2.78
2023-02-03T14:14:46.559Z,1.40
2023-02-03T14:18:07.395Z,1.75
2023-02-03T14:20:42.887Z,1.00
2023-02-03T14:23:20.800Z,0.73
2023-02-03T14:25:55.847Z,0.80
2023-02-03T14:28:31.041Z,0.80
2023-02-03T14:31:12.864Z,0.87
2023-02-03T14:33:57.429Z,1.00
2023-02-03T14:36:48.107Z,1.20
2023-02-03T14:40:06.921Z,0.83
2023-02-03T14:43:27.454Z,0.80
2023-02-03T14:46:53.840Z,0.70
2023-02-03T14:49:42.426Z,0.90
2023-02-03T14:52:38.912Z,1.13
2023-02-03T14:55:39.887Z,0.93
2023-02-03T14:58:24.758Z,1.03
2023-02-03T15:00:55.119Z,1.50
2023-02-03T15:03:35.521Z,1.13
2023-02-03T15:06:06.747Z,1.10
2023-02-03T15:08:44.434Z,0.80
2023-02-03T15:11:32.762Z,1.03
2023-02-03T15:14:26.063Z,1.20
2023-02-03T15:17:01.874Z,1.00
2023-02-03T15:19:39.473Z,1.20
2023-02-03T15:22:24.448Z,0.80
2023-02-03T15:24:57.169Z,1.42
2023-02-03T15:27:29.448Z,1.10
2023-02-03T15:29:59.920Z,0.90
2023-02-03T15:32:34.831Z,0.93
2023-02-03T15:35:11.085Z,1.00
2023-02-03T15:37:47.251Z,4.60
2023-02-03T15:40:20.818Z,1.38
2023-02-03T15:42:59.828Z,1.67
2023-02-03T15:45:37.892Z,0.70
2023-02-03T15:48:17.065Z,0.95
2023-02-03T15:50:54.845Z,1.47
2023-02-03T15:53:45.321Z,0.97
2023-02-03T15:56:26.815Z,1.13
2023-02-03T15:58:59.117Z,1.10
2023-02-03T16:01:28.467Z,1.93
2023-02-03T16:04:00.952Z,2.00
2023-02-03T16:06:38.620Z,1.15
2023-02-03T16:09:08.804Z,1.13
2023-02-03T16:11:39.937Z,1.10
2023-02-03T16:14:12.818Z,1.40
2023-02-03T16:17:02.540Z,1.63
2023-02-03T16:19:38.671Z,1.30
2023-02-03T16:22:32.454Z,1.90
2023-02-03T16:25:16.251Z,1.20
2023-02-03T16:27:47.765Z,3.17
2023-02-03T16:30:43.233Z,1.03
2023-02-03T16:33:36.628Z,1.27
2023-02-03T16:36:32.431Z,1.03
2023-02-03T16:39:25.403Z,0.83
2023-02-03T16:42:11.827Z,1.02
2023-02-03T16:44:58.299Z,1.85
2023-02-03T16:47:46.872Z,3.20
2023-02-03T16:50:38.946Z,1.50
2023-02-03T16:53:14.465Z,0.80
2023-02-03T16:55:45.434Z,0.90
2023-02-03T16:58:14.253Z,1.17
2023-02-03T17:00:44.839Z,0.70
2023-02-03T17:03:17.600Z,0.60
2023-02-03T17:05:48.510Z,0.70
2023-02-03T17:08:20.472Z,0.90
2023-02-03T17:10:51.579Z,0.88
2023-02-03T17:13:22.959Z,0.90
2023-02-03T17:15:53.893Z,0.80
2023-02-03T17:18:24.364Z,1.02
2023-02-03T17:20:53.569Z,0.83
2023-02-03T17:23:22.810Z,0.70
2023-02-03T17:25:56.150Z,0.80
2023-02-03T17:28:25.870Z,0.70
2023-02-03T17:31:00.319Z,0.75
2023-02-03T17:33:29.691Z,0.80
2023-02-03T17:36:05.613Z,1.10
2023-02-03T17:55:17.765Z,1.13
2023-02-03T17:57:47.986Z,1.00
2023-02-03T18:00:17.798Z,0.73
2023-02-03T18:02:51.156Z,0.77
2023-02-03T18:05:20.088Z,0.95
2023-02-03T18:10:22.834Z,1.10
2023-02-03T18:12:53.071Z,1.00
2023-02-03T18:15:21.974Z,1.10
2023-02-03T18:17:50.815Z,1.45
2023-02-03T18:20:20.431Z,2.20
2023-02-03T18:22:49.199Z,1.30
2023-02-03T18:25:18.595Z,1.20
2023-02-03T18:27:47.609Z,0.70
2023-02-03T18:30:20.250Z,0.60
2023-02-03T18:32:52.995Z,0.70
2023-02-03T18:35:21.794Z,1.10
2023-02-03T18:37:51.785Z,1.67
2023-02-03T18:40:20.853Z,2.15
2023-02-03T18:42:49.658Z,1.13
2023-02-03T18:45:20.035Z,1.70
2023-02-03T18:47:49.174Z,0.60
2023-02-03T18:50:18.821Z,0.75
2023-02-03T18:52:47.878Z,1.90
2023-02-03T18:55:19.957Z,2.10
2023-02-03T18:57:49.146Z,2.73
2023-02-03T19:00:21.136Z,23.50
2023-02-03T19:02:51.253Z,10.77
2023-02-03T19:05:20.335Z,2.50
2023-02-03T19:07:49.227Z,2.73
2023-02-03T19:10:18.976Z,2.33
2023-02-03T19:12:48.260Z,1.15
2023-02-03T19:15:19.415Z,1.20
2023-02-03T19:17:48.294Z,1.77
2023-02-03T19:20:18.361Z,1.70
2023-02-03T19:22:47.391Z,2.97
2023-02-03T19:25:16.410Z,1.40
2023-02-03T19:27:45.412Z,1.33
2023-02-03T19:30:15.045Z,2.03
2023-02-03T19:32:45.794Z,1.95
2023-02-03T19:35:15.575Z,2.10
2023-02-03T19:37:47.051Z,4.00
2023-02-03T19:40:17.132Z,4.03
2023-02-03T19:42:46.065Z,3.13
2023-02-03T19:45:15.174Z,1.50
2023-02-03T19:47:45.452Z,3.67
2023-02-03T19:50:14.599Z,2.72
2023-02-03T19:52:45.384Z,4.10
2023-02-03T19:55:16.260Z,3.40
2023-02-03T19:57:45.089Z,2.60
2023-02-03T20:00:16.067Z,10.20
2023-02-03T20:02:46.388Z,2.17
2023-02-03T20:05:20.213Z,3.63
2023-02-03T20:07:49.538Z,2.25
2023-02-03T20:10:22.226Z,2.33
2023-02-03T20:12:52.091Z,1.90
2023-02-03T20:15:21.959Z,2.47
2023-02-03T20:17:52.189Z,6.37
2023-02-03T20:20:21.274Z,3.53
2023-02-03T20:22:50.552Z,3.23
2023-02-03T20:25:20.197Z,4.20
2023-02-03T20:27:48.987Z,4.97
2023-02-03T20:30:18.136Z,2.42
2023-02-03T20:32:47.462Z,3.08
2023-02-03T20:35:18.111Z,3.87
2023-02-03T20:37:47.149Z,2.57
2023-02-03T20:40:18.964Z,2.23
2023-02-03T20:42:47.823Z,2.60
2023-02-03T20:45:19.001Z,2.50
2023-02-03T20:47:48.357Z,1.80
2023-02-03T20:50:31.475Z,3.03
2023-02-03T20:53:00.713Z,2.00
2023-02-03T20:55:29.550Z,4.32
2023-02-03T20:57:58.725Z,3.70
2023-02-03T21:00:28.621Z,3.08
2023-02-03T21:03:15.158Z,2.30
2023-02-03T21:05:46.548Z,2.20
2023-02-03T21:08:17.870Z,2.17
2023-02-03T21:10:48.476Z,3.20
2023-02-03T21:13:22.856Z,4.40
2023-02-03T21:15:53.978Z,2.10
2023-02-03T21:18:38.551Z,5.03
2023-02-03T21:21:16.103Z,1.43
2023-02-03T21:23:47.744Z,2.67
2023-02-03T21:26:21.342Z,7.68
2023-02-03T21:28:52.972Z,4.20
2023-02-03T21:31:28.562Z,1.55
2023-02-03T21:33:59.839Z,1.63
2023-02-03T21:36:36.050Z,3.65
2023-02-03T21:39:25.103Z,2.80
2023-02-03T21:41:53.995Z,2.50
2023-02-03T21:44:29.379Z,3.43
2023-02-03T21:46:58.550Z,2.20
2023-02-03T21:49:27.306Z,2.10
2023-02-03T21:51:57.519Z,2.10
2023-02-03T21:54:31.396Z,6.67
2023-02-03T21:57:01.405Z,2.60
2023-02-03T21:59:39.089Z,4.18
2023-02-03T22:02:57.067Z,2.17
2023-02-03T22:05:25.966Z,3.27
2023-02-03T22:07:56.172Z,1.97
2023-02-03T22:10:24.986Z,4.10
2023-02-03T22:12:53.754Z,2.40
2023-02-03T22:15:22.577Z,3.73
2023-02-03T22:17:51.378Z,1.70
2023-02-03T22:20:20.801Z,1.60
2023-02-03T22:22:49.752Z,2.43
2023-02-03T22:25:19.960Z,5.03
2023-02-03T22:27:48.819Z,2.60
2023-02-03T22:30:18.449Z,1.50
2023-02-03T22:32:47.204Z,2.00
2023-02-03T22:35:16.251Z,1.60
2023-02-03T22:37:45.125Z,3.63
2023-02-03T22:40:14.806Z,4.40
2023-02-03T22:42:45.557Z,2.40
2023-02-03T22:45:15.226Z,2.00
2023-02-03T22:47:44.025Z,1.90
2023-02-03T22:50:15.493Z,2.40
2023-02-03T22:52:45.153Z,1.70
2023-02-03T22:55:15.086Z,2.00
2023-02-03T22:57:45.206Z,1.97
2023-02-03T23:00:21.355Z,2.70
2023-02-03T23:02:51.335Z,2.10
2023-02-03T23:05:20.875Z,1.90
2023-02-03T23:07:50.157Z,2.03
2023-02-03T23:10:22.483Z,2.10
2023-02-03T23:12:53.608Z,2.40
2023-02-03T23:15:22.398Z,2.30
2023-02-03T23:17:51.162Z,2.20
2023-02-03T23:20:20.440Z,1.83
2023-02-03T23:22:49.399Z,2.33
2023-02-03T23:25:18.359Z,2.00
2023-02-03T23:27:47.216Z,2.65
2023-02-03T23:30:17.692Z,2.10
2023-02-03T23:32:46.582Z,2.15
2023-02-03T23:35:32.949Z,2.42
2023-02-03T23:38:01.771Z,2.20
2023-02-03T23:40:30.955Z,2.35
2023-02-03T23:42:59.938Z,2.47
2023-02-03T23:45:30.217Z,2.47
2023-02-03T23:47:58.992Z,2.70
2023-02-03T23:50:27.920Z,2.27
2023-02-03T23:52:56.728Z,2.47
2023-02-03T23:55:25.549Z,3.38
2023-02-03T23:57:54.281Z,2.22
